Time;durP1;ratioP1;P1;durP2;ratioP2;P2;SDS_P1;SDS_P2;PMS_P1;PMS_P2;Temp;Humidity;BMP_temperature;BMP_pressure;BME280_temperature;BME280_humidity;BME280_pressure;Samples;Min_cycle;Max_cycle;Signal;HPM_P1;HPM_P2
2022/09/10 00:01:20;;;;;;;2.17;2.07;;;16.90;99.90;;;;;;4933397;29;20532;-80
2022/09/10 00:03:48;;;;;;;3.20;2.27;;;16.80;99.90;;;;;;4933241;29;20777;-82
2022/09/10 00:06:17;;;;;;;4.57;2.67;;;16.70;99.90;;;;;;4933266;29;20454;-81
2022/09/10 00:08:45;;;;;;;4.00;2.70;;;16.80;99.90;;;;;;4932064;29;20451;-82
2022/09/10 00:11:13;;;;;;;3.07;2.37;;;16.80;99.90;;;;;;4935181;29;20508;-78
2022/09/10 00:13:41;;;;;;;1.87;1.77;;;16.60;99.90;;;;;;4930240;29;20556;-80
2022/09/10 00:16:12;;;;;;;3.23;2.53;;;16.50;99.90;;;;;;4939132;29;20466;-81
2022/09/10 00:18:40;;;;;;;9.00;2.10;;;16.80;99.90;;;;;;4942124;29;20439;-81
2022/09/10 00:21:11;;;;;;;4.43;2.33;;;16.70;99.90;;;;;;4930113;29;20436;-83
2022/09/10 00:23:39;;;;;;;4.00;2.33;;;16.60;99.90;;;;;;4926148;29;20521;-82
2022/09/10 00:26:17;;;;;;;2.37;2.17;;;16.70;99.90;;;;;;4940554;29;20446;-82
2022/09/10 00:28:45;;;;;;;4.20;2.30;;;16.90;99.90;;;;;;4939615;29;20421;-82
2022/09/10 00:31:12;;;;;;;3.03;2.80;;;16.90;99.90;;;;;;4933467;29;20517;-82
2022/09/10 00:33:40;;;;;;;1.87;1.70;;;17.00;99.90;;;;;;4931620;29;20457;-81
2022/09/10 00:36:15;;;;;;;7.83;2.97;;;17.00;99.90;;;;;;4933400;29;20453;-83
2022/09/10 00:38:43;;;;;;;3.73;2.20;;;17.00;99.90;;;;;;4936360;29;20500;-82
2022/09/10 00:41:10;;;;;;;3.53;2.03;;;16.80;99.90;;;;;;4940666;29;20446;-81
2022/09/10 00:44:03;;;;;;;3.20;2.40;;;16.80;99.90;;;;;;4934181;29;20443;-80
2022/09/10 00:46:33;;;;;;;3.13;2.00;;;16.90;99.90;;;;;;4938143;29;20630;-80
2022/09/10 00:49:11;;;;;;;2.60;2.10;;;17.10;99.90;;;;;;4932689;29;20431;-81
2022/09/10 00:51:39;;;;;;;2.17;2.07;;;16.80;99.90;;;;;;4926270;29;20838;-83
2022/09/10 00:54:07;;;;;;;2.63;2.43;;;16.60;99.90;;;;;;4935877;29;20622;-84
2022/09/10 00:56:34;;;;;;;2.33;1.80;;;16.50;99.90;;;;;;4937318;29;20544;-82
2022/09/10 00:59:04;;;;;;;4.53;3.70;;;16.40;99.90;;;;;;4928078;29;20453;-81
2022/09/10 01:01:32;;;;;;;4.73;3.13;;;16.30;99.90;;;;;;4968273;28;20450;-83
2022/09/10 01:04:01;;;;;;;2.83;2.47;;;16.20;99.90;;;;;;4936761;29;20453;-82
2022/09/10 01:06:28;;;;;;;3.00;1.87;;;16.10;99.90;;;;;;4936292;29;20501;-82
2022/09/10 01:08:55;;;;;;;2.53;2.33;;;16.00;99.90;;;;;;4936149;29;20495;-81
2022/09/10 01:11:41;;;;;;;2.87;2.50;;;16.10;99.90;;;;;;4930739;29;20678;-80
2022/09/10 01:14:36;;;;;;;2.37;2.27;;;16.10;99.90;;;;;;4935651;29;20446;-81
2022/09/10 01:17:36;;;;;;;2.43;2.23;;;16.20;99.90;;;;;;4931936;29;20450;-80
2022/09/10 01:20:23;;;;;;;4.70;2.13;;;16.20;99.90;;;;;;4920608;29;20451;-80
2022/09/10 01:23:20;;;;;;;2.77;2.47;;;16.10;99.90;;;;;;4921582;29;20462;-79
2022/09/10 01:26:08;;;;;;;3.93;2.53;;;16.10;99.90;;;;;;4935311;29;20505;-82
2022/09/10 01:28:53;;;;;;;2.30;2.20;;;16.10;99.90;;;;;;4936983;29;21036;-84
2022/09/10 01:31:38;;;;;;;2.50;2.30;;;16.10;99.90;;;;;;4934057;29;20437;-79
2022/09/10 01:34:15;;;;;;;3.20;2.83;;;16.20;99.90;;;;;;4931267;29;20453;-82
2022/09/10 01:36:47;;;;;;;2.10;2.00;;;16.20;99.90;;;;;;4937937;29;20465;-80
2022/09/10 01:39:17;;;;;;;2.80;2.40;;;16.20;99.90;;;;;;4931850;29;20509;-80
2022/09/10 01:41:44;;;;;;;2.90;2.60;;;16.00;99.90;;;;;;4936403;29;20507;-81
2022/09/10 01:44:40;;;;;;;2.07;1.87;;;16.10;99.90;;;;;;4932026;29;20456;-80
2022/09/10 01:47:34;;;;;;;2.53;2.33;;;16.20;99.90;;;;;;4930489;29;20438;-79
2022/09/10 01:50:22;;;;;;;2.43;2.23;;;15.90;99.90;;;;;;4944718;29;20582;-81
2022/09/10 01:52:57;;;;;;;2.10;2.00;;;15.70;99.90;;;;;;4933943;29;20477;-80
2022/09/10 01:55:41;;;;;;;2.80;2.03;;;15.70;99.90;;;;;;4926378;29;20663;-81
2022/09/10 01:58:22;;;;;;;2.63;2.10;;;15.60;99.90;;;;;;4937076;29;20527;-80
2022/09/10 02:01:03;;;;;;;2.57;1.93;;;15.60;99.90;;;;;;4923216;29;20655;-82
2022/09/10 02:03:32;;;;;;;2.37;2.17;;;15.70;99.90;;;;;;4930063;29;20565;-81
2022/09/10 02:06:02;;;;;;;5.23;2.27;;;15.80;99.90;;;;;;4931596;29;20516;-81
2022/09/10 02:08:34;;;;;;;1.90;1.80;;;15.70;99.90;;;;;;4932191;29;20482;-82
2022/09/10 02:11:05;;;;;;;2.27;2.07;;;15.80;99.90;;;;;;4928469;29;20470;-82
2022/09/10 02:13:33;;;;;;;2.47;2.27;;;15.90;99.90;;;;;;4936578;29;20486;-83
2022/09/10 02:16:02;;;;;;;4.20;2.20;;;15.90;99.90;;;;;;4925985;29;20508;-83
2022/09/10 02:18:31;;;;;;;2.33;2.10;;;16.10;99.90;;;;;;4922951;29;20471;-83
2022/09/10 02:21:01;;;;;;;4.30;3.00;;;16.30;99.90;;;;;;4938918;29;20625;-83
2022/09/10 02:23:39;;;;;;;2.77;2.30;;;16.40;99.90;;;;;;4932193;29;20446;-84
2022/09/10 02:26:06;;;;;;;2.30;2.20;;;16.60;99.90;;;;;;4937046;29;20457;-84
2022/09/10 02:28:33;;;;;;;2.07;1.87;;;16.70;99.90;;;;;;4944417;29;20447;-83
2022/09/10 02:31:00;;;;;;;3.00;2.70;;;16.70;99.90;;;;;;4944077;29;20829;-82
2022/09/10 02:33:27;;;;;;;1.80;1.70;;;16.70;99.90;;;;;;4942944;29;20823;-81
2022/09/10 02:35:54;;;;;;;3.83;2.57;;;16.80;99.90;;;;;;4933676;29;20425;-85
2022/09/10 02:38:24;;;;;;;3.30;1.97;;;16.90;99.90;;;;;;4930286;29;20458;-82
2022/09/10 02:40:51;;;;;;;7.50;3.00;;;16.70;99.90;;;;;;4933139;29;20466;-81
2022/09/10 02:43:18;;;;;;;2.33;2.13;;;16.60;99.90;;;;;;4929654;29;20487;-82
2022/09/10 02:45:45;;;;;;;2.30;1.97;;;16.60;99.90;;;;;;4955595;28;20530;-82
2022/09/10 02:48:12;;;;;;;2.07;1.97;;;16.50;99.90;;;;;;4926507;29;20485;-82
2022/09/10 02:50:39;;;;;;;2.47;2.27;;;16.50;99.90;;;;;;4923743;29;20893;-82
2022/09/10 02:53:07;;;;;;;7.50;2.20;;;16.50;99.90;;;;;;4925627;29;20848;-82
2022/09/10 02:55:34;;;;;;;5.50;2.80;;;16.50;99.90;;;;;;4957955;28;20452;-82
2022/09/10 02:58:01;;;;;;;6.60;2.93;;;16.30;99.90;;;;;;4957814;28;20462;-83
2022/09/10 03:00:31;;;;;;;3.10;2.07;;;16.20;99.90;;;;;;4922769;29;20546;-83
2022/09/10 03:02:58;;;;;;;4.87;2.57;;;16.10;99.90;;;;;;4945336;28;20462;-81
2022/09/10 03:05:28;;;;;;;6.00;2.13;;;15.80;99.90;;;;;;4922422;29;20458;-81
2022/09/10 03:07:56;;;;;;;1.80;1.70;;;15.80;99.90;;;;;;4924526;29;20450;-85
2022/09/10 03:10:23;;;;;;;2.23;2.10;;;15.80;99.90;;;;;;4929069;29;20481;-81
2022/09/10 03:12:50;;;;;;;2.50;2.30;;;15.80;99.90;;;;;;4929353;29;20481;-81
2022/09/10 03:15:19;;;;;;;1.90;1.80;;;15.80;99.90;;;;;;4928749;29;20520;-80
2022/09/10 03:17:46;;;;;;;2.57;2.37;;;15.80;99.90;;;;;;4938044;29;20555;-80
2022/09/10 03:20:13;;;;;;;2.00;1.90;;;15.80;99.90;;;;;;4929656;29;20457;-80
2022/09/10 03:22:40;;;;;;;2.70;2.20;;;15.70;99.90;;;;;;4928967;29;20502;-79
2022/09/10 03:25:07;;;;;;;3.03;2.60;;;15.80;99.90;;;;;;4929870;29;20453;-81
2022/09/10 03:27:34;;;;;;;3.73;3.00;;;16.00;99.90;;;;;;4934925;29;20466;-80
2022/09/10 03:30:01;;;;;;;1.90;1.80;;;15.90;99.90;;;;;;4927711;29;20494;-79
2022/09/10 03:32:31;;;;;;;4.20;2.23;;;15.70;99.90;;;;;;4934795;29;20488;-80
2022/09/10 03:34:58;;;;;;;2.67;2.03;;;15.70;99.90;;;;;;4933152;29;20668;-79
2022/09/10 03:37:25;;;;;;;3.17;2.87;;;15.50;99.90;;;;;;4932420;29;20508;-80
2022/09/10 03:39:52;;;;;;;2.50;2.30;;;15.50;99.90;;;;;;4941089;29;20833;-83
2022/09/10 03:42:19;;;;;;;2.73;2.53;;;15.40;99.90;;;;;;4932656;29;20438;-82
2022/09/10 03:44:45;;;;;;;3.13;2.87;;;15.40;99.90;;;;;;4930887;29;20464;-81
2022/09/10 03:47:13;;;;;;;4.40;3.70;;;15.30;99.90;;;;;;4934776;29;20514;-81
2022/09/10 03:49:40;;;;;;;4.00;2.90;;;15.30;99.90;;;;;;4926107;29;20467;-79
2022/09/10 03:52:06;;;;;;;4.90;2.80;;;15.20;99.90;;;;;;4934157;29;20487;-82
2022/09/10 03:54:34;;;;;;;2.70;2.50;;;15.30;99.90;;;;;;4931712;29;20454;-79
2022/09/10 03:57:01;;;;;;;3.10;2.43;;;15.40;99.90;;;;;;4935262;29;20744;-81
2022/09/10 03:59:29;;;;;;;3.70;3.40;;;15.40;99.90;;;;;;4934948;29;20453;-80
2022/09/10 04:01:56;;;;;;;3.03;2.60;;;15.40;99.90;;;;;;4926314;29;20497;-82
2022/09/10 04:04:23;;;;;;;4.00;3.20;;;15.50;99.90;;;;;;4933328;29;20576;-82
2022/09/10 04:06:51;;;;;;;4.73;3.20;;;15.50;99.90;;;;;;4933331;29;20454;-81
2022/09/10 04:09:18;;;;;;;3.53;3.23;;;15.50;99.90;;;;;;4938413;29;20453;-79
2022/09/10 04:11:45;;;;;;;5.67;3.00;;;15.50;99.90;;;;;;4916765;29;20544;-81
2022/09/10 04:14:14;;;;;;;3.00;2.77;;;15.50;99.90;;;;;;4932745;29;20449;-81
2022/09/10 04:16:41;;;;;;;3.67;3.30;;;15.40;99.90;;;;;;4931508;29;20449;-82
2022/09/10 04:19:08;;;;;;;3.37;3.07;;;15.30;99.90;;;;;;4936615;29;20787;-79
2022/09/10 04:21:35;;;;;;;2.50;2.30;;;15.60;99.90;;;;;;4930108;29;20462;-80
2022/09/10 04:24:01;;;;;;;3.53;2.40;;;15.70;99.90;;;;;;4934732;29;20504;-79
2022/09/10 04:26:28;;;;;;;3.97;2.47;;;15.60;99.90;;;;;;4924131;29;20465;-81
2022/09/10 04:28:56;;;;;;;3.93;2.90;;;15.50;99.90;;;;;;4932224;29;20461;-81
2022/09/10 04:31:22;;;;;;;4.30;3.67;;;15.60;99.90;;;;;;4929408;29;20457;-81
2022/09/10 04:33:49;;;;;;;3.40;3.20;;;15.80;99.90;;;;;;4930074;29;20495;-83
2022/09/10 04:36:16;;;;;;;3.83;3.53;;;15.90;99.90;;;;;;4950074;28;20495;-81
2022/09/10 04:38:43;;;;;;;3.73;3.33;;;15.70;99.90;;;;;;4930282;29;20785;-81
2022/09/10 04:41:11;;;;;;;5.53;3.90;;;15.60;99.90;;;;;;4928392;29;20871;-80
2022/09/10 04:43:37;;;;;;;6.33;3.50;;;15.60;99.90;;;;;;4924936;29;20516;-80
2022/09/10 04:46:04;;;;;;;4.17;3.87;;;15.60;99.90;;;;;;4930991;29;20502;-81
2022/09/10 04:48:32;;;;;;;7.03;3.60;;;15.60;99.90;;;;;;4919807;29;20451;-81
2022/09/10 04:50:59;;;;;;;7.10;3.13;;;15.80;99.90;;;;;;4924508;29;20515;-83
2022/09/10 04:53:42;;;;;;;3.20;2.87;;;15.80;99.90;;;;;;4940168;28;20457;-83
2022/09/10 04:56:09;;;;;;;4.53;3.67;;;16.00;99.90;;;;;;4929943;29;20645;-81
2022/09/10 04:58:35;;;;;;;3.57;3.23;;;15.90;99.90;;;;;;4930067;29;20443;-81
2022/09/10 05:01:05;;;;;;;2.83;2.60;;;15.90;99.90;;;;;;4928997;29;20454;-81
2022/09/10 05:03:32;;;;;;;4.93;3.07;;;15.90;99.90;;;;;;4933296;29;20473;-83
2022/09/10 05:06:00;;;;;;;3.93;3.10;;;16.00;99.90;;;;;;4927864;29;20456;-84
2022/09/10 05:08:27;;;;;;;3.30;2.93;;;15.80;99.90;;;;;;4928433;29;20454;-81
2022/09/10 05:10:53;;;;;;;6.53;2.87;;;15.70;99.90;;;;;;4933742;29;20512;-82
2022/09/10 05:13:21;;;;;;;2.93;2.73;;;15.80;99.90;;;;;;4925985;29;20670;-83
2022/09/10 05:15:48;;;;;;;3.50;3.20;;;15.80;99.90;;;;;;4933125;29;20459;-82
2022/09/10 05:18:15;;;;;;;2.77;2.43;;;15.90;99.90;;;;;;4939087;29;20466;-81
2022/09/10 05:20:43;;;;;;;5.03;2.73;;;15.80;99.90;;;;;;4931750;29;20454;-82
2022/09/10 05:23:10;;;;;;;2.83;2.60;;;15.90;99.90;;;;;;4929562;29;20433;-83
2022/09/10 05:25:38;;;;;;;11.57;3.93;;;16.00;99.90;;;;;;4941801;29;20628;-82
2022/09/10 05:28:04;;;;;;;2.70;1.93;;;16.10;99.90;;;;;;4916612;29;20453;-82
2022/09/10 05:30:32;;;;;;;2.80;2.57;;;16.10;99.90;;;;;;4922648;29;20456;-82
2022/09/10 05:33:00;;;;;;;2.90;2.20;;;16.20;99.90;;;;;;4923236;29;20486;-82
2022/09/10 05:35:27;;;;;;;5.10;1.93;;;16.10;99.90;;;;;;4959918;28;20454;-82
2022/09/10 05:37:57;;;;;;;3.07;2.27;;;16.40;99.90;;;;;;4926022;29;20459;-81
2022/09/10 05:40:25;;;;;;;3.47;3.17;;;16.50;99.90;;;;;;4947793;29;20478;-82
2022/09/10 05:42:52;;;;;;;3.33;2.37;;;16.70;99.90;;;;;;4936875;29;20459;-80
2022/09/10 05:45:20;;;;;;;2.27;2.17;;;17.00;99.90;;;;;;4909989;29;20446;-82
2022/09/10 05:47:47;;;;;;;2.13;2.00;;;17.30;99.90;;;;;;4923383;29;20463;-81
2022/09/10 05:50:16;;;;;;;2.50;2.20;;;17.30;99.90;;;;;;4922313;29;20446;-82
2022/09/10 05:52:43;;;;;;;3.20;1.93;;;17.20;99.90;;;;;;4929947;29;20501;-82
2022/09/10 05:55:10;;;;;;;2.00;1.80;;;17.40;99.90;;;;;;4922029;29;20455;-82
2022/09/10 05:57:39;;;;;;;3.70;1.50;;;17.30;99.90;;;;;;4930929;29;20466;-82
2022/09/10 06:00:08;;;;;;;3.37;1.67;;;17.30;99.90;;;;;;4925733;29;20534;-82
2022/09/10 06:02:35;;;;;;;2.93;2.07;;;17.30;99.90;;;;;;4931668;29;20486;-81
2022/09/10 06:05:02;;;;;;;2.07;1.87;;;17.00;99.90;;;;;;4958826;28;20443;-83
2022/09/10 06:07:31;;;;;;;2.13;1.83;;;17.10;99.90;;;;;;4924900;29;20527;-81
2022/09/10 06:09:58;;;;;;;2.80;2.00;;;17.20;99.90;;;;;;4921274;29;20454;-83
2022/09/10 06:12:26;;;;;;;2.00;1.90;;;17.20;99.90;;;;;;4938072;29;20530;-79
2022/09/10 06:14:53;;;;;;;4.93;1.43;;;17.30;99.90;;;;;;4932654;29;20517;-82
2022/09/10 06:17:20;;;;;;;2.07;1.87;;;17.40;99.90;;;;;;4938222;29;20514;-83
2022/09/10 06:19:46;;;;;;;2.20;2.00;;;17.80;99.90;;;;;;4935712;29;20553;-83
2022/09/10 06:22:13;;;;;;;4.10;1.47;;;18.30;99.90;;;;;;4932145;29;20425;-82
2022/09/10 06:24:40;;;;;;;2.17;1.67;;;18.60;99.90;;;;;;4964375;28;20459;-81
2022/09/10 06:27:08;;;;;;;1.57;1.47;;;18.40;99.90;;;;;;4930268;29;20451;-83
2022/09/10 06:29:35;;;;;;;2.37;2.17;;;18.70;99.90;;;;;;4930112;29;20476;-82
2022/09/10 06:32:03;;;;;;;2.40;1.80;;;19.20;99.90;;;;;;4933062;29;20429;-82
2022/09/10 06:34:31;;;;;;;3.43;1.57;;;19.90;99.90;;;;;;4924920;29;20480;-81
2022/09/10 06:36:57;;;;;;;6.23;1.83;;;20.30;99.90;;;;;;4929904;29;20454;-80
2022/09/10 06:39:26;;;;;;;2.77;1.70;;;20.10;99.90;;;;;;4936963;29;20450;-82
2022/09/10 06:41:53;;;;;;;2.07;1.90;;;20.20;99.90;;;;;;4940292;29;20459;-82
2022/09/10 06:44:21;;;;;;;1.30;1.20;;;21.00;99.90;;;;;;4932744;29;20468;-81
2022/09/10 06:46:48;;;;;;;1.83;1.37;;;22.40;99.90;;;;;;4924340;29;20448;-81
2022/09/10 06:49:35;;;;;;;2.20;1.80;;;23.50;99.90;;;;;;4929281;29;20461;-85
2022/09/10 06:52:02;;;;;;;1.93;1.60;;;24.60;99.90;;;;;;4931575;29;20455;-83
2022/09/10 06:54:29;;;;;;;1.33;1.23;;;26.00;99.90;;;;;;4926564;29;20720;-82
2022/09/10 06:56:56;;;;;;;4.03;1.80;;;27.70;99.90;;;;;;4931701;29;20427;-81
2022/09/10 06:59:23;;;;;;;2.17;1.90;;;28.40;99.90;;;;;;4925506;29;20528;-81
2022/09/10 07:01:50;;;;;;;2.20;1.63;;;30.10;99.90;;;;;;4934066;29;20417;-81
2022/09/10 07:04:17;;;;;;;3.53;1.40;;;31.40;99.90;;;;;;4930180;29;20455;-83
2022/09/10 07:06:46;;;;;;;1.97;1.70;;;31.40;99.90;;;;;;4927751;29;20444;-80
2022/09/10 07:09:14;;;;;;;3.27;1.33;;;31.00;99.90;;;;;;4928462;29;20461;-82
2022/09/10 07:11:41;;;;;;;2.07;1.70;;;30.10;99.90;;;;;;4935889;29;20459;-81
2022/09/10 07:14:12;;;;;;;1.60;1.50;;;28.90;99.90;;;;;;4921027;29;20634;-84
2022/09/10 07:16:40;;;;;;;2.10;1.70;;;28.30;99.90;;;;;;4921317;29;20481;-80
2022/09/10 07:19:16;;;;;;;3.40;1.47;;;28.30;99.90;;;;;;4924457;29;20493;-81
2022/09/10 07:21:43;;;;;;;2.50;2.03;;;27.90;99.90;;;;;;4925256;29;20449;-84
2022/09/10 07:24:11;;;;;;;2.77;2.07;;;28.10;99.90;;;;;;4915469;29;20565;-83
2022/09/10 07:26:38;;;;;;;3.13;1.63;;;29.20;99.90;;;;;;4930041;29;20448;-82
2022/09/10 07:29:05;;;;;;;2.33;2.00;;;30.80;99.90;;;;;;4929140;29;20454;-81
2022/09/10 07:31:34;;;;;;;2.10;1.53;;;32.30;99.90;;;;;;4920581;29;20686;-83
2022/09/10 07:34:02;;;;;;;1.83;1.67;;;33.40;98.60;;;;;;4919065;29;20469;-82
2022/09/10 07:36:29;;;;;;;5.40;1.80;;;34.60;94.10;;;;;;4924694;29;20506;-83
2022/09/10 07:39:00;;;;;;;1.53;1.43;;;35.20;91.10;;;;;;4922726;29;20455;-83
2022/09/10 07:41:28;;;;;;;1.60;1.50;;;34.00;94.00;;;;;;4932666;29;20466;-82
2022/09/10 07:43:56;;;;;;;4.70;1.93;;;35.10;90.20;;;;;;4923420;29;20800;-82
2022/09/10 07:46:24;;;;;;;2.40;2.20;;;36.10;90.90;;;;;;4915198;29;20659;-81
2022/09/10 07:48:56;;;;;;;3.93;1.60;;;36.80;85.20;;;;;;4920584;29;20595;-79
2022/09/10 07:51:25;;;;;;;1.87;1.77;;;36.70;81.30;;;;;;4914998;29;20522;-82
2022/09/10 07:53:55;;;;;;;3.10;1.77;;;35.80;86.10;;;;;;4935565;29;20482;-85
2022/09/10 07:56:22;;;;;;;1.53;1.23;;;35.60;83.00;;;;;;4925385;29;20455;-83
2022/09/10 07:58:53;;;;;;;4.00;1.53;;;33.60;90.60;;;;;;4918281;29;20567;-82
2022/09/10 08:01:21;;;;;;;1.97;1.40;;;31.30;93.60;;;;;;4922550;29;20459;-81
2022/09/10 08:03:48;;;;;;;3.30;1.20;;;29.30;99.90;;;;;;4914973;29;20433;-80
2022/09/10 08:06:15;;;;;;;1.40;1.30;;;29.00;99.90;;;;;;4921332;29;20455;-80
2022/09/10 08:08:42;;;;;;;3.00;1.37;;;29.60;99.50;;;;;;4920192;29;20440;-81
2022/09/10 08:11:11;;;;;;;2.40;1.37;;;28.60;99.90;;;;;;4929199;29;20458;-82
2022/09/10 08:13:40;;;;;;;2.43;1.50;;;27.20;99.90;;;;;;4922900;29;20808;-80
2022/09/10 08:16:09;;;;;;;2.40;1.07;;;27.10;99.90;;;;;;4941940;29;20426;-83
2022/09/10 08:18:39;;;;;;;6.40;1.20;;;29.00;99.90;;;;;;4932339;29;20447;-81
2022/09/10 08:21:07;;;;;;;2.40;1.50;;;28.90;99.90;;;;;;4933212;29;20568;-82
2022/09/10 08:23:34;;;;;;;2.53;1.40;;;27.30;99.90;;;;;;4940090;29;20582;-84
2022/09/10 08:26:03;;;;;;;1.83;1.17;;;27.60;99.90;;;;;;4938928;29;20570;-80
2022/09/10 08:28:30;;;;;;;1.30;1.20;;;29.50;99.90;;;;;;4940218;29;20493;-82
2022/09/10 08:31:10;;;;;;;1.50;1.40;;;30.40;98.20;;;;;;4932263;29;20451;-81
2022/09/10 08:33:38;;;;;;;12.37;2.10;;;28.70;99.90;;;;;;4922466;29;20788;-81
2022/09/10 08:36:09;;;;;;;3.03;1.70;;;27.10;99.90;;;;;;4924319;29;20485;-85
2022/09/10 08:38:38;;;;;;;3.30;1.60;;;25.60;99.90;;;;;;4921006;29;20467;-83
2022/09/10 08:41:12;;;;;;;4.67;1.80;;;25.30;99.90;;;;;;4922896;29;20520;-80
2022/09/10 08:43:57;;;;;;;4.73;1.37;;;26.40;99.90;;;;;;4921672;29;20435;-83
2022/09/10 08:46:28;;;;;;;2.73;1.70;;;25.00;99.90;;;;;;4926906;29;20450;-82
2022/09/10 08:49:13;;;;;;;2.63;1.73;;;24.40;99.90;;;;;;4944450;28;20558;-82
2022/09/10 08:51:55;;;;;;;2.90;1.60;;;24.00;99.90;;;;;;4925163;29;20440;-82
2022/09/10 08:54:51;;;;;;;2.57;1.70;;;23.80;99.90;;;;;;4930793;29;20453;-81
2022/09/10 08:57:29;;;;;;;1.83;1.43;;;25.40;99.90;;;;;;4932398;29;20447;-82
2022/09/10 08:59:59;;;;;;;2.57;2.03;;;28.70;99.90;;;;;;4947451;28;20440;-82
2022/09/10 09:02:50;;;;;;;2.30;1.40;;;29.90;99.90;;;;;;4926670;29;20433;-82
2022/09/10 09:05:21;;;;;;;2.90;1.90;;;32.10;97.60;;;;;;4920927;29;20665;-81
2022/09/10 09:07:50;;;;;;;3.07;1.73;;;31.10;95.60;;;;;;4920028;29;20549;-81
2022/09/10 09:11:02;;;;;;;2.50;1.53;;;27.90;99.90;;;;;;4921428;29;20459;-83
2022/09/10 09:13:53;;;;;;;3.07;1.43;;;26.10;99.90;;;;;;4923415;29;20546;-80
2022/09/10 09:16:42;;;;;;;2.53;1.63;;;25.40;99.90;;;;;;4921290;29;20488;-79
2022/09/10 09:19:33;;;;;;;5.47;2.70;;;26.00;99.90;;;;;;4923067;29;20801;-82
2022/09/10 09:22:07;;;;;;;2.10;1.70;;;26.00;99.90;;;;;;4923167;29;20658;-82
2022/09/10 09:24:49;;;;;;;3.10;1.80;;;25.90;99.90;;;;;;4928302;29;20484;-82
2022/09/10 09:27:18;;;;;;;3.67;1.93;;;25.50;99.90;;;;;;4930698;29;20425;-82
2022/09/10 09:30:15;;;;;;;2.93;1.87;;;25.00;99.90;;;;;;4924670;29;20833;-80
2022/09/10 09:33:26;;;;;;;3.17;1.90;;;25.60;99.90;;;;;;4934962;29;20470;-84
2022/09/10 09:36:34;;;;;;;2.57;1.50;;;25.60;99.90;;;;;;4960114;29;20427;-82
2022/09/10 09:39:53;;;;;;;3.13;1.90;;;24.90;99.90;;;;;;4950648;29;20414;-83
2022/09/10 09:43:14;;;;;;;2.33;1.87;;;24.20;99.90;;;;;;4869364;29;20455;-83
2022/09/10 09:45:46;;;;;;;6.03;2.10;;;23.60;99.90;;;;;;4907081;29;20438;-82
2022/09/10 10:22:56;;;;;;;2.20;1.33;;;24.40;99.90;;;;;;4927837;29;20436;-81
2022/09/10 10:26:19;;;;;;;3.97;2.70;;;24.40;99.90;;;;;;4924203;29;20498;-82
2022/09/10 10:31:49;;;;;;;1.97;1.77;;;25.00;99.90;;;;;;5324938;23;20871;-83
2022/09/10 10:57:29;;;;;;;1.83;1.70;;;22.50;99.90;;;;;;5090364;23;20454;-81
2022/09/10 11:00:02;;;;;;;1.93;1.43;;;22.60;99.90;;;;;;4936204;28;20426;-79
2022/09/10 11:02:54;;;;;;;4.20;1.93;;;22.70;99.90;;;;;;4949248;28;20467;-80
2022/09/10 11:05:33;;;;;;;9.93;1.93;;;22.70;99.90;;;;;;4964393;28;20439;-81
2022/09/10 11:08:08;;;;;;;3.40;1.57;;;22.80;99.90;;;;;;4945727;29;20765;-80
2022/09/10 11:10:43;;;;;;;3.20;1.90;;;22.50;99.90;;;;;;4950928;28;20422;-81
2022/09/10 11:13:56;;;;;;;3.37;1.60;;;22.60;99.90;;;;;;4959884;28;20463;-82
2022/09/10 11:20:42;;;;;;;1.40;1.30;;;23.60;99.90;;;;;;4977860;28;20411;-82
2022/09/10 11:23:44;;;;;;;1.40;1.30;;;24.10;99.90;;;;;;4970196;28;20444;-82
2022/09/10 11:27:17;;;;;;;2.37;1.50;;;23.80;99.90;;;;;;4992511;28;20427;-82
2022/09/10 11:31:00;;;;;;;5.73;1.40;;;24.10;99.90;;;;;;4960380;29;20437;-87
2022/09/10 11:34:23;;;;;;;3.00;1.63;;;24.60;99.90;;;;;;4965309;28;20482;-83
2022/09/10 11:53:27;;;;;;;1.60;1.50;;;23.50;99.90;;;;;;5648786;23;20481;-80
2022/09/10 11:56:21;;;;;;;2.13;1.40;;;23.20;99.90;;;;;;4927495;29;20519;-81
2022/09/10 11:59:26;;;;;;;3.00;1.40;;;22.90;99.90;;;;;;4924785;29;20420;-82
2022/09/10 12:02:16;;;;;;;4.43;2.23;;;22.70;99.90;;;;;;4922630;29;20502;-81
2022/09/10 12:05:22;;;;;;;5.07;1.77;;;22.80;99.90;;;;;;4921121;29;20630;-81
2022/09/10 12:08:44;;;;;;;3.70;1.57;;;23.00;99.90;;;;;;4904782;29;20963;-81
2022/09/10 12:11:17;;;;;;;4.83;2.03;;;23.20;99.90;;;;;;4862301;29;20432;-80
2022/09/10 12:13:48;;;;;;;1.50;1.37;;;23.60;99.90;;;;;;4867214;29;20822;-82
2022/09/10 12:16:22;;;;;;;1.67;1.57;;;23.60;99.90;;;;;;4895764;29;20421;-83
2022/09/10 12:18:53;;;;;;;3.10;1.73;;;23.60;99.90;;;;;;4920317;29;20418;-81
2022/09/10 12:21:41;;;;;;;2.80;1.87;;;23.50;99.90;;;;;;4920400;29;20679;-80
2022/09/10 12:24:33;;;;;;;2.07;1.47;;;23.30;99.90;;;;;;4923742;29;20414;-79
2022/09/10 12:27:01;;;;;;;1.50;1.40;;;22.70;99.90;;;;;;4922606;29;20437;-80
2022/09/10 12:29:32;;;;;;;1.77;1.43;;;22.70;99.90;;;;;;4921491;29;20425;-80
2022/09/10 12:32:11;;;;;;;1.80;1.50;;;22.60;99.90;;;;;;4922059;29;20514;-81
2022/09/10 12:34:41;;;;;;;3.10;1.80;;;22.40;99.90;;;;;;4922406;29;20508;-81
2022/09/10 12:37:38;;;;;;;4.10;2.90;;;22.20;99.90;;;;;;4920818;29;20451;-82
2022/09/10 12:40:25;;;;;;;3.63;2.60;;;21.90;99.90;;;;;;4923592;29;20434;-82
2022/09/10 12:43:17;;;;;;;4.20;2.50;;;21.30;99.90;;;;;;4921364;29;21081;-82
2022/09/10 12:46:24;;;;;;;5.53;2.73;;;20.60;99.90;;;;;;4919047;29;20468;-79
2022/09/10 12:48:57;;;;;;;7.30;2.60;;;20.10;99.90;;;;;;4894682;29;20881;-79
2022/09/10 12:51:51;;;;;;;3.87;3.07;;;19.70;99.90;;;;;;4902763;29;20703;-81
2022/09/10 12:54:43;;;;;;;3.20;2.90;;;19.40;99.90;;;;;;4922495;29;20462;-80
2022/09/10 12:57:19;;;;;;;3.17;2.33;;;19.20;99.90;;;;;;4921980;29;20479;-80
2022/09/10 13:00:13;;;;;;;5.73;2.47;;;19.50;99.90;;;;;;4922142;29;20448;-82
2022/09/10 13:03:14;;;;;;;8.00;2.83;;;19.80;99.90;;;;;;4927573;29;20419;-82
2022/09/10 13:05:43;;;;;;;4.70;3.23;;;20.00;99.90;;;;;;4935253;29;20489;-80
2022/09/10 13:08:50;;;;;;;4.10;2.60;;;20.10;99.90;;;;;;4927711;29;20681;-81
2022/09/10 13:11:23;;;;;;;5.17;2.93;;;20.20;99.90;;;;;;4923301;29;20434;-81
2022/09/10 13:13:56;;;;;;;4.60;3.50;;;20.40;99.90;;;;;;4921021;29;20442;-81
2022/09/10 13:16:25;;;;;;;4.30;2.30;;;20.50;99.90;;;;;;4920130;29;20438;-81
2022/09/10 13:19:12;;;;;;;4.90;3.37;;;20.60;99.90;;;;;;4920255;29;20502;-81
2022/09/10 13:21:46;;;;;;;2.40;2.20;;;20.50;99.90;;;;;;4904845;29;20874;-82
2022/09/10 13:24:55;;;;;;;3.63;2.30;;;20.70;99.90;;;;;;4921102;29;20451;-81
2022/09/10 13:27:40;;;;;;;2.97;2.60;;;20.80;99.90;;;;;;4916001;29;21070;-81
2022/09/10 13:30:19;;;;;;;4.63;2.27;;;21.20;99.90;;;;;;4921891;29;20459;-82
2022/09/10 13:32:54;;;;;;;2.00;1.80;;;21.40;99.90;;;;;;4921409;29;20501;-81
2022/09/10 13:36:04;;;;;;;2.30;1.83;;;21.70;99.90;;;;;;4918442;29;20484;-82
2022/09/10 13:39:01;;;;;;;2.60;1.87;;;21.70;99.90;;;;;;4895818;29;20452;-79
2022/09/10 13:41:31;;;;;;;3.73;2.10;;;21.70;99.90;;;;;;4915821;29;20480;-79
2022/09/10 13:44:10;;;;;;;5.23;1.83;;;22.10;99.90;;;;;;4923567;29;20842;-81
2022/09/10 13:46:49;;;;;;;2.80;1.60;;;22.00;99.90;;;;;;4924070;29;20782;-80
2022/09/10 13:49:28;;;;;;;2.37;2.20;;;22.50;99.90;;;;;;4923940;29;20445;-79
2022/09/10 13:51:57;;;;;;;4.23;2.10;;;22.40;99.90;;;;;;4925725;29;20496;-80
2022/09/10 13:54:48;;;;;;;1.80;1.57;;;22.50;99.90;;;;;;4922754;29;20544;-81
2022/09/10 13:57:27;;;;;;;11.57;4.97;;;22.60;99.90;;;;;;4919402;29;20459;-79
2022/09/10 14:00:17;;;;;;;43.50;26.27;;;22.60;99.90;;;;;;4928867;29;20431;-78
2022/09/10 14:02:46;;;;;;;59.23;31.23;;;22.70;99.90;;;;;;4928941;29;20650;-80
2022/09/10 14:05:22;;;;;;;3.00;2.30;;;22.50;99.90;;;;;;4925469;29;20441;-80
2022/09/10 14:07:50;;;;;;;2.67;2.47;;;22.50;99.90;;;;;;4924412;29;20428;-80
2022/09/10 14:10:17;;;;;;;6.80;3.90;;;22.50;99.90;;;;;;4908929;29;20462;-81
2022/09/10 14:12:47;;;;;;;6.63;3.03;;;22.60;99.90;;;;;;4923380;29;20449;-79
2022/09/10 14:15:22;;;;;;;2.30;2.10;;;22.60;99.90;;;;;;4921467;29;20937;-81
2022/09/10 14:17:56;;;;;;;3.97;1.90;;;22.50;99.90;;;;;;4922338;29;20429;-81
2022/09/10 14:20:28;;;;;;;2.80;2.47;;;22.70;99.90;;;;;;4916898;29;20481;-81
2022/09/10 14:23:01;;;;;;;3.20;2.40;;;23.10;99.90;;;;;;4922932;29;20424;-81
2022/09/10 14:25:39;;;;;;;2.93;1.93;;;23.20;99.90;;;;;;4928606;29;20473;-81
2022/09/10 14:28:21;;;;;;;9.63;5.00;;;23.50;99.90;;;;;;4928761;29;20534;-81
2022/09/10 14:30:51;;;;;;;2.70;1.70;;;23.90;99.90;;;;;;4925575;29;20417;-81
2022/09/10 14:33:35;;;;;;;1.83;1.70;;;23.90;99.90;;;;;;4920698;29;20460;-80
2022/09/10 14:36:14;;;;;;;3.40;1.50;;;23.70;99.90;;;;;;4917919;29;20503;-81
2022/09/10 14:38:41;;;;;;;5.50;4.40;;;23.70;99.90;;;;;;4932306;29;20442;-80
2022/09/10 14:41:25;;;;;;;2.73;1.97;;;23.70;99.90;;;;;;4936784;29;20428;-81
2022/09/10 14:44:19;;;;;;;4.87;2.53;;;23.60;99.90;;;;;;4921855;29;20774;-80
2022/09/10 14:47:06;;;;;;;3.10;2.00;;;24.00;99.90;;;;;;4919089;29;20852;-82